Inspire — ZME2017 — position and weather

sailwx.info

Track history (hours):
 
Tides and Currents Weather Stations Pressure Air Temp Water Temp Dewpoint Dewpoint Depression Visibility Wind Speed Wind Dir Waves Ship Positions

Inspire

Last reported at 2018-Jan-12 01:34 UTC. Time now 2018-Feb-25 08:14 UTC.
Position N 17°55' W 063°20'.
Warning: this ship's position is 44 days out of date.

Length 13 m.

Type: Sailing vessel. MMSI: 512006153.

Date/timePositionNaut miles runAvg speedWind from/ knotsBaromVisibWave heightAir tempDewpointWater temp
2018-Jan-12 01:34N 17°55' W 063°20'2 7.1
2018-Jan-12 01:16N 17°54' W 063°18'2 6.9
2018-Jan-12 00:58N 17°53' W 063°16'3 6.8
2018-Jan-12 00:27N 17°51' W 063°13'4 7.2
2018-Jan-11 23:56N 17°49' W 063°10'4 7.4
2018-Jan-11 23:25N 17°47' W 063°06'3 7.0
2018-Jan-11 22:56N 17°45' W 063°03'64 7.1
2018-Jan-11 13:56N 17°10' W 062°08'3 7.8
2018-Jan-11 13:31N 17°08' W 062°05'7 7.2
2018-Jan-11 12:32N 17°03' W 061°59'4 5.4
2018-Jan-11 11:47N 17°01' W 061°55'3 6.1
2018-Jan-11 11:17N 16°60' W 061°52'2 6.3
2018-Jan-11 11:01N 16°60' W 061°51'3 6.0
2018-Jan-11 10:30N 17°00' W 061°47'1 1.7
2018-Jan-11 09:58N 17°01' W 061°47'0 0.0
2018-Jan-11 09:28N 17°01' W 061°47'0 0.0
2018-Jan-11 08:58N 17°01' W 061°47'0 0.0
2018-Jan-11 08:28N 17°01' W 061°47'0 0.0
2018-Jan-11 07:58N 17°01' W 061°47'0 0.0
2018-Jan-11 07:28N 17°01' W 061°47'0 0.0
2018-Jan-11 06:58N 17°01' W 061°47'0 0.0
2018-Jan-11 06:28N 17°01' W 061°47'0 0.0
2018-Jan-11 05:58N 17°01' W 061°47'0 0.0
2018-Jan-11 05:28N 17°01' W 061°47'0 0.0
2018-Jan-11 04:58N 17°01' W 061°47'0 0.0
2018-Jan-11 04:28N 17°01' W 061°47'0 0.0
2018-Jan-11 03:58N 17°01' W 061°47'0 0.0
2018-Jan-11 03:28N 17°01' W 061°47'0 0.0
2018-Jan-11 02:58N 17°01' W 061°47'0 0.0
2018-Jan-11 02:28N 17°01' W 061°47'0 0.0
2018-Jan-11 01:58N 17°01' W 061°47'0 0.0
2018-Jan-11 01:28N 17°01' W 061°47'0 0.0
2018-Jan-11 00:58N 17°01' W 061°47'0 0.0
2018-Jan-11 00:28N 17°01' W 061°47'0 0.0
2018-Jan-10 23:58N 17°01' W 061°47'0 0.0
2018-Jan-10 23:28N 17°01' W 061°47'0 0.0
2018-Jan-10 22:52N 17°01' W 061°47'0 0.0
2018-Jan-10 22:28N 17°01' W 061°47'0 0.0
2018-Jan-10 21:58N 17°01' W 061°47'0 0.0
2018-Jan-10 21:28N 17°01' W 061°47'0 0.0
2018-Jan-10 20:58N 17°01' W 061°47'0 0.0
2018-Jan-10 20:28N 17°01' W 061°47'0 0.0
2018-Jan-10 19:58N 17°01' W 061°47'0 0.0
2018-Jan-10 19:28N 17°01' W 061°47'0 0.0
2018-Jan-10 18:58N 17°01' W 061°47'0 0.0
2018-Jan-10 18:28N 17°01' W 061°47'0 0.0
2018-Jan-10 17:58N 17°01' W 061°47'0 0.0
2018-Jan-10 17:28N 17°01' W 061°47'0 0.0
2018-Jan-10 16:58N 17°01' W 061°47'0 0.0
2018-Jan-10 16:28N 17°01' W 061°47'0 0.0
2018-Jan-10 15:58N 17°01' W 061°47'0 0.0
2018-Jan-10 15:28N 17°01' W 061°47'0 0.0
2018-Jan-10 14:58N 17°01' W 061°47'0 0.0
2018-Jan-10 14:28N 17°01' W 061°47'0 0.0
2018-Jan-10 13:58N 17°01' W 061°47'0 0.0
2018-Jan-10 13:28N 17°01' W 061°47'0 0.0
2018-Jan-10 12:58N 17°01' W 061°47'0 0.0
2018-Jan-10 12:28N 17°01' W 061°47'0 0.0
2018-Jan-10 11:58N 17°01' W 061°47'0 0.0
2018-Jan-10 11:28N 17°01' W 061°47'0 0.0
2018-Jan-10 10:58N 17°01' W 061°47'0 0.0
2018-Jan-10 10:28N 17°01' W 061°47'0 0.0
2018-Jan-10 09:58N 17°01' W 061°47'0 0.0
2018-Jan-10 09:28N 17°01' W 061°47'0 0.0
2018-Jan-10 08:58N 17°01' W 061°47'0 0.0
2018-Jan-10 08:28N 17°01' W 061°47'0 0.0
2018-Jan-10 07:58N 17°01' W 061°47'0 0.0
2018-Jan-10 07:28N 17°01' W 061°47'0 0.0
2018-Jan-10 06:58N 17°01' W 061°47'0 0.0
2018-Jan-10 06:28N 17°01' W 061°47'0 0.0
2018-Jan-10 05:55N 17°01' W 061°47'0 0.0
2018-Jan-10 05:28N 17°01' W 061°47'0 0.0
2018-Jan-10 04:58N 17°01' W 061°47'0 0.0
2018-Jan-10 04:28N 17°01' W 061°47'0 0.0
2018-Jan-10 03:58N 17°01' W 061°47'0 0.0
2018-Jan-10 03:28N 17°01' W 061°47'0 0.0
2018-Jan-10 02:58N 17°01' W 061°47'0 0.0
2018-Jan-10 02:28N 17°01' W 061°47'0 0.0
2018-Jan-10 01:58N 17°01' W 061°47'0 0.0
2018-Jan-10 01:28N 17°01' W 061°47'0 0.0
2018-Jan-10 00:58N 17°01' W 061°47'0 0.0
2018-Jan-10 00:28N 17°01' W 061°47'0 0.0
2018-Jan-09 23:58N 17°01' W 061°47'0 0.0
2018-Jan-09 23:28N 17°01' W 061°47'0 0.0
2018-Jan-09 22:58N 17°01' W 061°47'0 0.0
2018-Jan-09 22:28N 17°01' W 061°47'0 0.0
2018-Jan-09 21:58N 17°01' W 061°47'0 0.0
2018-Jan-09 21:28N 17°01' W 061°47'0 0.0
2018-Jan-09 20:58N 17°01' W 061°47'0 0.0
2018-Jan-09 20:28N 17°01' W 061°47'0 0.0
2018-Jan-09 19:58N 17°01' W 061°47'0 0.0
2018-Jan-09 19:28N 17°01' W 061°47'0 0.0
2018-Jan-09 18:58N 17°01' W 061°47'0 0.0
2018-Jan-09 18:28N 17°01' W 061°47'0 0.0
2018-Jan-09 17:58N 17°01' W 061°47'0 0.0
2018-Jan-09 17:28N 17°01' W 061°47'0 0.0
2018-Jan-09 16:58N 17°01' W 061°47'0 0.0
2018-Jan-09 16:28N 17°01' W 061°47'0 0.0
2018-Jan-09 15:58N 17°01' W 061°47'0 0.0
2018-Jan-09 15:28N 17°01' W 061°47'0 0.0
2018-Jan-09 14:58N 17°01' W 061°47'0 0.0
2018-Jan-09 14:28N 17°01' W 061°47'0 0.0
2018-Jan-09 13:58N 17°01' W 061°47'0 0.0
2018-Jan-09 13:28N 17°01' W 061°47'0 0.0
2018-Jan-09 12:58N 17°01' W 061°47'0 0.0
2018-Jan-09 12:28N 17°01' W 061°47'0 0.0
2018-Jan-09 11:58N 17°01' W 061°47'0 0.0
2018-Jan-09 11:28N 17°01' W 061°47'0 0.0
2018-Jan-09 10:58N 17°01' W 061°47'0 0.0
2018-Jan-09 10:25N 17°01' W 061°47'0 0.0
2018-Jan-09 09:58N 17°01' W 061°47'0 0.0
2018-Jan-09 09:28N 17°01' W 061°47'0 0.0
2018-Jan-09 08:58N 17°01' W 061°47'0 0.0
2018-Jan-09 08:28N 17°01' W 061°47'0 0.0
2018-Jan-09 07:58N 17°01' W 061°47'0 0.0
2018-Jan-09 07:28N 17°01' W 061°47'0 0.0
2018-Jan-09 06:58N 17°01' W 061°47'0 0.0
2018-Jan-09 06:28N 17°01' W 061°47'0 0.0
2018-Jan-09 05:58N 17°01' W 061°47'0 0.0
2018-Jan-09 05:28N 17°01' W 061°47'0 0.0
2018-Jan-09 04:58N 17°01' W 061°47'0 0.0
2018-Jan-09 04:28N 17°01' W 061°47'0 0.0
2018-Jan-09 03:58N 17°01' W 061°47'0 0.0
2018-Jan-09 03:28N 17°01' W 061°47'0 0.0
2018-Jan-09 02:58N 17°01' W 061°47'0 0.0
2018-Jan-09 02:28N 17°01' W 061°47'0 0.0
2018-Jan-09 01:58N 17°01' W 061°47'0 0.0
2018-Jan-09 01:28N 17°01' W 061°47'0 0.0
2018-Jan-09 00:58N 17°01' W 061°47'0 0.0
2018-Jan-09 00:28N 17°01' W 061°47'0 0.0
2018-Jan-08 23:58N 17°01' W 061°47'0 0.0
2018-Jan-08 23:28N 17°01' W 061°47'0 0.0
2018-Jan-08 22:58N 17°01' W 061°47'  
Track history (hours):
 
Tides and Currents Weather Stations Pressure Air Temp Water Temp Dewpoint Dewpoint Depression Visibility Wind Speed Wind Dir Waves Ship Positions

Inspire

Last reported at 2018-Jan-12 01:34 UTC. Time now 2018-Feb-25 08:14 UTC.
Position N 17°55' W 063°20'.
Warning: this ship's position is 44 days out of date.

Length 13 m.

Type: Sailing vessel. MMSI: 512006153.

Date/timePositionNaut miles runAvg speedWind from/ knotsBaromVisibWave heightAir tempDewpointWater temp
2018-Jan-12 01:34N 17°55' W 063°20'2 7.1
2018-Jan-12 01:16N 17°54' W 063°18'2 6.9
2018-Jan-12 00:58N 17°53' W 063°16'3 6.8
2018-Jan-12 00:27N 17°51' W 063°13'4 7.2
2018-Jan-11 23:56N 17°49' W 063°10'4 7.4
2018-Jan-11 23:25N 17°47' W 063°06'3 7.0
2018-Jan-11 22:56N 17°45' W 063°03'64 7.1
2018-Jan-11 13:56N 17°10' W 062°08'3 7.8
2018-Jan-11 13:31N 17°08' W 062°05'7 7.2
2018-Jan-11 12:32N 17°03' W 061°59'4 5.4
2018-Jan-11 11:47N 17°01' W 061°55'3 6.1
2018-Jan-11 11:17N 16°60' W 061°52'2 6.3
2018-Jan-11 11:01N 16°60' W 061°51'3 6.0
2018-Jan-11 10:30N 17°00' W 061°47'1 1.7
2018-Jan-11 09:58N 17°01' W 061°47'0 0.0
2018-Jan-11 09:28N 17°01' W 061°47'0 0.0
2018-Jan-11 08:58N 17°01' W 061°47'0 0.0
2018-Jan-11 08:28N 17°01' W 061°47'0 0.0
2018-Jan-11 07:58N 17°01' W 061°47'0 0.0
2018-Jan-11 07:28N 17°01' W 061°47'0 0.0
2018-Jan-11 06:58N 17°01' W 061°47'0 0.0
2018-Jan-11 06:28N 17°01' W 061°47'0 0.0
2018-Jan-11 05:58N 17°01' W 061°47'0 0.0
2018-Jan-11 05:28N 17°01' W 061°47'0 0.0
2018-Jan-11 04:58N 17°01' W 061°47'0 0.0
2018-Jan-11 04:28N 17°01' W 061°47'0 0.0
2018-Jan-11 03:58N 17°01' W 061°47'0 0.0
2018-Jan-11 03:28N 17°01' W 061°47'0 0.0
2018-Jan-11 02:58N 17°01' W 061°47'0 0.0
2018-Jan-11 02:28N 17°01' W 061°47'0 0.0
2018-Jan-11 01:58N 17°01' W 061°47'0 0.0
2018-Jan-11 01:28N 17°01' W 061°47'0 0.0
2018-Jan-11 00:58N 17°01' W 061°47'0 0.0
2018-Jan-11 00:28N 17°01' W 061°47'0 0.0
2018-Jan-10 23:58N 17°01' W 061°47'0 0.0
2018-Jan-10 23:28N 17°01' W 061°47'0 0.0
2018-Jan-10 22:52N 17°01' W 061°47'0 0.0
2018-Jan-10 22:28N 17°01' W 061°47'0 0.0
2018-Jan-10 21:58N 17°01' W 061°47'0 0.0
2018-Jan-10 21:28N 17°01' W 061°47'0 0.0
2018-Jan-10 20:58N 17°01' W 061°47'0 0.0
2018-Jan-10 20:28N 17°01' W 061°47'0 0.0
2018-Jan-10 19:58N 17°01' W 061°47'0 0.0
2018-Jan-10 19:28N 17°01' W 061°47'0 0.0
2018-Jan-10 18:58N 17°01' W 061°47'0 0.0
2018-Jan-10 18:28N 17°01' W 061°47'0 0.0
2018-Jan-10 17:58N 17°01' W 061°47'0 0.0
2018-Jan-10 17:28N 17°01' W 061°47'0 0.0
2018-Jan-10 16:58N 17°01' W 061°47'0 0.0
2018-Jan-10 16:28N 17°01' W 061°47'0 0.0
2018-Jan-10 15:58N 17°01' W 061°47'0 0.0
2018-Jan-10 15:28N 17°01' W 061°47'0 0.0
2018-Jan-10 14:58N 17°01' W 061°47'0 0.0
2018-Jan-10 14:28N 17°01' W 061°47'0 0.0
2018-Jan-10 13:58N 17°01' W 061°47'0 0.0
2018-Jan-10 13:28N 17°01' W 061°47'0 0.0
2018-Jan-10 12:58N 17°01' W 061°47'0 0.0
2018-Jan-10 12:28N 17°01' W 061°47'0 0.0
2018-Jan-10 11:58N 17°01' W 061°47'0 0.0
2018-Jan-10 11:28N 17°01' W 061°47'0 0.0
2018-Jan-10 10:58N 17°01' W 061°47'0 0.0
2018-Jan-10 10:28N 17°01' W 061°47'0 0.0
2018-Jan-10 09:58N 17°01' W 061°47'0 0.0
2018-Jan-10 09:28N 17°01' W 061°47'0 0.0
2018-Jan-10 08:58N 17°01' W 061°47'0 0.0
2018-Jan-10 08:28N 17°01' W 061°47'0 0.0
2018-Jan-10 07:58N 17°01' W 061°47'0 0.0
2018-Jan-10 07:28N 17°01' W 061°47'0 0.0
2018-Jan-10 06:58N 17°01' W 061°47'0 0.0
2018-Jan-10 06:28N 17°01' W 061°47'0 0.0
2018-Jan-10 05:55N 17°01' W 061°47'0 0.0
2018-Jan-10 05:28N 17°01' W 061°47'0 0.0
2018-Jan-10 04:58N 17°01' W 061°47'0 0.0
2018-Jan-10 04:28N 17°01' W 061°47'0 0.0
2018-Jan-10 03:58N 17°01' W 061°47'0 0.0
2018-Jan-10 03:28N 17°01' W 061°47'0 0.0
2018-Jan-10 02:58N 17°01' W 061°47'0 0.0
2018-Jan-10 02:28N 17°01' W 061°47'0 0.0
2018-Jan-10 01:58N 17°01' W 061°47'0 0.0
2018-Jan-10 01:28N 17°01' W 061°47'0 0.0
2018-Jan-10 00:58N 17°01' W 061°47'0 0.0
2018-Jan-10 00:28N 17°01' W 061°47'0 0.0
2018-Jan-09 23:58N 17°01' W 061°47'0 0.0
2018-Jan-09 23:28N 17°01' W 061°47'0 0.0
2018-Jan-09 22:58N 17°01' W 061°47'0 0.0
2018-Jan-09 22:28N 17°01' W 061°47'0 0.0
2018-Jan-09 21:58N 17°01' W 061°47'0 0.0
2018-Jan-09 21:28N 17°01' W 061°47'0 0.0
2018-Jan-09 20:58N 17°01' W 061°47'0 0.0
2018-Jan-09 20:28N 17°01' W 061°47'0 0.0
2018-Jan-09 19:58N 17°01' W 061°47'0 0.0
2018-Jan-09 19:28N 17°01' W 061°47'0 0.0
2018-Jan-09 18:58N 17°01' W 061°47'0 0.0
2018-Jan-09 18:28N 17°01' W 061°47'0 0.0
2018-Jan-09 17:58N 17°01' W 061°47'0 0.0
2018-Jan-09 17:28N 17°01' W 061°47'0 0.0
2018-Jan-09 16:58N 17°01' W 061°47'0 0.0
2018-Jan-09 16:28N 17°01' W 061°47'0 0.0
2018-Jan-09 15:58N 17°01' W 061°47'0 0.0
2018-Jan-09 15:28N 17°01' W 061°47'0 0.0
2018-Jan-09 14:58N 17°01' W 061°47'0 0.0
2018-Jan-09 14:28N 17°01' W 061°47'0 0.0
2018-Jan-09 13:58N 17°01' W 061°47'0 0.0
2018-Jan-09 13:28N 17°01' W 061°47'0 0.0
2018-Jan-09 12:58N 17°01' W 061°47'0 0.0
2018-Jan-09 12:28N 17°01' W 061°47'0 0.0
2018-Jan-09 11:58N 17°01' W 061°47'0 0.0
2018-Jan-09 11:28N 17°01' W 061°47'0 0.0
2018-Jan-09 10:58N 17°01' W 061°47'0 0.0
2018-Jan-09 10:25N 17°01' W 061°47'0 0.0
2018-Jan-09 09:58N 17°01' W 061°47'0 0.0
2018-Jan-09 09:28N 17°01' W 061°47'0 0.0
2018-Jan-09 08:58N 17°01' W 061°47'0 0.0
2018-Jan-09 08:28N 17°01' W 061°47'0 0.0
2018-Jan-09 07:58N 17°01' W 061°47'0 0.0
2018-Jan-09 07:28N 17°01' W 061°47'0 0.0
2018-Jan-09 06:58N 17°01' W 061°47'0 0.0
2018-Jan-09 06:28N 17°01' W 061°47'0 0.0
2018-Jan-09 05:58N 17°01' W 061°47'0 0.0
2018-Jan-09 05:28N 17°01' W 061°47'0 0.0
2018-Jan-09 04:58N 17°01' W 061°47'0 0.0
2018-Jan-09 04:28N 17°01' W 061°47'0 0.0
2018-Jan-09 03:58N 17°01' W 061°47'0 0.0
2018-Jan-09 03:28N 17°01' W 061°47'0 0.0
2018-Jan-09 02:58N 17°01' W 061°47'0 0.0
2018-Jan-09 02:28N 17°01' W 061°47'0 0.0
2018-Jan-09 01:58N 17°01' W 061°47'0 0.0
2018-Jan-09 01:28N 17°01' W 061°47'0 0.0
2018-Jan-09 00:58N 17°01' W 061°47'0 0.0
2018-Jan-09 00:28N 17°01' W 061°47'0 0.0
2018-Jan-08 23:58N 17°01' W 061°47'0 0.0
2018-Jan-08 23:28N 17°01' W 061°47'0 0.0
2018-Jan-08 22:58N 17°01' W 061°47'  

Dump ship's entire track history